Laconia, NH (03246)

4:17 PM EST on March 01, 2015 (GMT -0500)
KNHWEIRS3 | Change Station
CLOSE
Current Station
Personal Weather Station
Location: Weirs Beach, NH
Elevation: 837 ft
Nearby Weather Stations

Elev 837 ft 43.55 °N, 71.43 °W | Updated 2 minutes ago

Overcast
Overcast
28.4 °F
Feels Like 28 °F
N
3.0
Wind Variable Wind from WSW
Gusts 5.0 mph

Today
High -- | Low -- °F
--% Chance of Precip.
Yesterday
High -- | Low -- °F
Precip. -- in
6:22 AM 5:34 PM
Waxing Gibbous, 87% visible
Pressure 30.33 in
Visibility 10.0 miles
Clouds Few 4100 ft
Overcast 5000 ft
Windchill 28 °F
Dew Point 11 °F
Humidity 47%
Rainfall 0.00 in
Snow Depth Not available.
UV 0 out of 12
Pollen .30 out of 12
Air Quality Not available.
Flu Activity Not available.
METAR KLCI 012055Z AUTO 19005KT 10SM FEW041 OVC050 M03/M13 A3033 RMK AO1 57037

More Conditions Fewer Conditions

Pressure 30.33 in
Visibility 10.0 miles
Clouds Few 4100 ft
Overcast 5000 ft
Windchill 28 °F
Dew Point 11 °F
Humidity 47%
Rainfall 0.00 in
Snow Depth Not available.
UV 0 out of 12
Pollen .30 out of 12
Air Quality Not available.
Flu Activity Not available.
METAR KLCI 012055Z AUTO 19005KT 10SM FEW041 OVC050 M03/M13 A3033 RMK AO1 57037

More Conditions Fewer Conditions

10-Day Weather Forecast

Almanac

Astronomy

Mar. 01, 2015 Rise Set
Actual Time
Civil Twilight
Nautical Twilight
Astronomical Twilight
Moon
Length of Visible Light
Length of Day
Tomorrow will be .
, % of the Moon is Illuminated

Today's Extremes

State Highs State Lows

Community

WunderPhotos

Upload Photos

1,801,559 photos uploaded!

WunderBlogs® & News

Nearby

Air Quality

  Air Quality AQ Index Pollutant
Not available.

Snow Depth

Station Depth Elevation

Earthquake Activity

City Distance Mag. Time & Date
Minimum magnitude displayed is 2.5.

Coastal Water Temperatures

Place Temperature

Nearby Weather Stations